sensor_id;sensor_type;location;lat;lon;timestamp;pressure;altitude;pressure_sealevel;temperature;humidity
25610;BME280;13479;49.044;8.716;2023-02-20T00:01:29;100035.09;;;9.61;68.78
25610;BME280;13479;49.044;8.716;2023-02-20T00:03:55;100021.91;;;9.59;68.70
25610;BME280;13479;49.044;8.716;2023-02-20T00:06:20;100023.38;;;9.50;69.19
25610;BME280;13479;49.044;8.716;2023-02-20T00:08:45;100015.63;;;9.47;69.03
25610;BME280;13479;49.044;8.716;2023-02-20T00:11:11;100016.31;;;9.36;69.71
25610;BME280;13479;49.044;8.716;2023-02-20T00:13:36;100002.44;;;9.33;70.04
25610;BME280;13479;49.044;8.716;2023-02-20T00:16:02;100000.19;;;9.26;70.01
25610;BME280;13479;49.044;8.716;2023-02-20T00:18:27;100006.63;;;9.22;70.44
25610;BME280;13479;49.044;8.716;2023-02-20T00:20:52;100017.41;;;9.19;70.66
25610;BME280;13479;49.044;8.716;2023-02-20T00:23:17;100029.56;;;9.09;70.92
25610;BME280;13479;49.044;8.716;2023-02-20T00:25:43;100039.38;;;9.07;71.15
25610;BME280;13479;49.044;8.716;2023-02-20T00:28:09;100063.34;;;9.05;71.00
25610;BME280;13479;49.044;8.716;2023-02-20T00:30:34;100057.56;;;8.99;71.43
25610;BME280;13479;49.044;8.716;2023-02-20T00:33:00;100070.81;;;8.99;71.29
25610;BME280;13479;49.044;8.716;2023-02-20T00:35:26;100064.03;;;8.94;71.51
25610;BME280;13479;49.044;8.716;2023-02-20T00:37:52;100066.09;;;8.89;71.49
25610;BME280;13479;49.044;8.716;2023-02-20T00:40:19;100070.47;;;8.76;71.99
25610;BME280;13479;49.044;8.716;2023-02-20T00:42:45;100064.41;;;8.74;72.27
25610;BME280;13479;49.044;8.716;2023-02-20T00:45:11;100072.63;;;8.69;72.46
25610;BME280;13479;49.044;8.716;2023-02-20T00:47:37;100069.13;;;8.54;72.44
25610;BME280;13479;49.044;8.716;2023-02-20T00:50:03;100069.84;;;8.42;72.85
25610;BME280;13479;49.044;8.716;2023-02-20T00:52:29;100066.44;;;8.40;73.42
25610;BME280;13479;49.044;8.716;2023-02-20T00:54:54;100090.63;;;8.33;73.42
25610;BME280;13479;49.044;8.716;2023-02-20T00:57:19;100083.41;;;8.21;73.88
25610;BME280;13479;49.044;8.716;2023-02-20T00:59:45;100089.91;;;8.15;74.08
25610;BME280;13479;49.044;8.716;2023-02-20T01:02:10;100095.31;;;8.14;74.13
25610;BME280;13479;49.044;8.716;2023-02-20T01:04:35;100102.09;;;8.03;74.75
25610;BME280;13479;49.044;8.716;2023-02-20T01:07:01;100105.75;;;8.01;74.75
25610;BME280;13479;49.044;8.716;2023-02-20T01:09:26;100108.09;;;7.91;74.97
25610;BME280;13479;49.044;8.716;2023-02-20T01:11:53;100103.41;;;7.80;75.57
25610;BME280;13479;49.044;8.716;2023-02-20T01:14:19;100118.16;;;7.84;75.69
25610;BME280;13479;49.044;8.716;2023-02-20T01:16:46;100119.53;;;7.76;75.73
25610;BME280;13479;49.044;8.716;2023-02-20T01:19:12;100125.19;;;7.69;76.15
25610;BME280;13479;49.044;8.716;2023-02-20T01:21:37;100134.97;;;7.67;76.14
25610;BME280;13479;49.044;8.716;2023-02-20T01:24:02;100137.94;;;7.61;76.45
25610;BME280;13479;49.044;8.716;2023-02-20T01:26:28;100132.34;;;7.51;77.07
25610;BME280;13479;49.044;8.716;2023-02-20T01:28:53;100134.88;;;7.53;77.21
25610;BME280;13479;49.044;8.716;2023-02-20T01:31:18;100132.34;;;7.51;77.29
25610;BME280;13479;49.044;8.716;2023-02-20T01:33:43;100137.69;;;7.50;77.23
25610;BME280;13479;49.044;8.716;2023-02-20T01:36:09;100145.81;;;7.47;77.89
25610;BME280;13479;49.044;8.716;2023-02-20T01:38:34;100151.94;;;7.47;77.34
25610;BME280;13479;49.044;8.716;2023-02-20T01:41:00;100150.91;;;7.34;77.90
25610;BME280;13479;49.044;8.716;2023-02-20T01:43:25;100148.00;;;7.22;78.03
25610;BME280;13479;49.044;8.716;2023-02-20T01:45:51;100156.69;;;7.24;78.35
25610;BME280;13479;49.044;8.716;2023-02-20T01:48:21;100150.88;;;7.18;77.90
25610;BME280;13479;49.044;8.716;2023-02-20T01:50:47;100149.84;;;7.04;78.58
25610;BME280;13479;49.044;8.716;2023-02-20T01:53:17;100141.75;;;7.07;78.92
25610;BME280;13479;49.044;8.716;2023-02-20T01:55:50;100150.78;;;7.03;79.24
25610;BME280;13479;49.044;8.716;2023-02-20T01:58:40;100170.22;;;7.02;79.13
25610;BME280;13479;49.044;8.716;2023-02-20T02:01:06;100165.00;;;7.01;79.45
25610;BME280;13479;49.044;8.716;2023-02-20T02:03:35;100168.66;;;6.98;79.70
25610;BME280;13479;49.044;8.716;2023-02-20T02:06:06;100171.44;;;6.95;79.96
25610;BME280;13479;49.044;8.716;2023-02-20T02:08:35;100168.22;;;6.90;80.35
25610;BME280;13479;49.044;8.716;2023-02-20T02:11:07;100172.47;;;6.92;80.22
25610;BME280;13479;49.044;8.716;2023-02-20T02:13:35;100173.31;;;6.93;80.33
25610;BME280;13479;49.044;8.716;2023-02-20T02:16:21;100175.34;;;6.88;80.17
25610;BME280;13479;49.044;8.716;2023-02-20T02:19:14;100165.09;;;6.82;80.32
25610;BME280;13479;49.044;8.716;2023-02-20T02:27:12;100158.59;;;6.71;81.08
25610;BME280;13479;49.044;8.716;2023-02-20T02:33:01;100173.69;;;6.69;80.93
25610;BME280;13479;49.044;8.716;2023-02-20T02:35:59;100183.59;;;6.64;81.50
25610;BME280;13479;49.044;8.716;2023-02-20T02:38:44;100175.00;;;6.60;82.00
25610;BME280;13479;49.044;8.716;2023-02-20T02:43:50;100184.91;;;6.55;81.71
25610;BME280;13479;49.044;8.716;2023-02-20T02:46:29;100189.28;;;6.56;82.37
25610;BME280;13479;49.044;8.716;2023-02-20T02:49:05;100177.09;;;6.54;82.50
25610;BME280;13479;49.044;8.716;2023-02-20T02:51:35;100184.09;;;6.55;82.54
25610;BME280;13479;49.044;8.716;2023-02-20T02:54:17;100188.56;;;6.53;81.85
25610;BME280;13479;49.044;8.716;2023-02-20T02:56:46;100173.38;;;6.58;82.74
25610;BME280;13479;49.044;8.716;2023-02-20T02:59:22;100187.88;;;6.67;81.85
25610;BME280;13479;49.044;8.716;2023-02-20T03:01:53;100176.94;;;6.57;82.65
25610;BME280;13479;49.044;8.716;2023-02-20T03:04:20;100175.38;;;6.53;82.58
25610;BME280;13479;49.044;8.716;2023-02-20T03:06:58;100176.03;;;6.58;82.20
25610;BME280;13479;49.044;8.716;2023-02-20T03:09:35;100180.66;;;6.53;82.67
25610;BME280;13479;49.044;8.716;2023-02-20T03:12:02;100168.50;;;6.50;82.44
25610;BME280;13479;49.044;8.716;2023-02-20T03:14:43;100167.63;;;6.49;82.80
25610;BME280;13479;49.044;8.716;2023-02-20T03:17:32;100164.97;;;6.49;82.37
25610;BME280;13479;49.044;8.716;2023-02-20T03:20:05;100169.47;;;6.47;83.01
25610;BME280;13479;49.044;8.716;2023-02-20T03:25:07;100177.19;;;6.52;82.40
25610;BME280;13479;49.044;8.716;2023-02-20T03:27:42;100175.38;;;6.53;82.74
25610;BME280;13479;49.044;8.716;2023-02-20T03:30:17;100175.38;;;6.53;82.35
25610;BME280;13479;49.044;8.716;2023-02-20T03:32:47;100175.25;;;6.56;82.66
25610;BME280;13479;49.044;8.716;2023-02-20T03:35:33;100170.88;;;6.55;82.67
25610;BME280;13479;49.044;8.716;2023-02-20T03:38:20;100168.41;;;6.52;82.59
25610;BME280;13479;49.044;8.716;2023-02-20T03:41:06;100164.69;;;6.56;83.06
25610;BME280;13479;49.044;8.716;2023-02-20T03:43:52;100162.34;;;6.49;82.75
25610;BME280;13479;49.044;8.716;2023-02-20T03:46:20;100170.09;;;6.70;82.33
25610;BME280;13479;49.044;8.716;2023-02-20T03:48:58;100193.84;;;6.70;82.19
25610;BME280;13479;49.044;8.716;2023-02-20T03:51:24;100182.03;;;6.60;82.43
25610;BME280;13479;49.044;8.716;2023-02-20T03:53:50;100176.84;;;6.58;82.99
25610;BME280;13479;49.044;8.716;2023-02-20T03:56:24;100173.06;;;6.64;82.85
25610;BME280;13479;49.044;8.716;2023-02-20T03:58:56;100161.56;;;6.65;82.81
25610;BME280;13479;49.044;8.716;2023-02-20T04:01:25;100158.28;;;6.60;82.53
25610;BME280;13479;49.044;8.716;2023-02-20T04:03:53;100162.81;;;6.58;82.87
25610;BME280;13479;49.044;8.716;2023-02-20T04:06:23;100160.63;;;6.66;82.58
25610;BME280;13479;49.044;8.716;2023-02-20T04:08:58;100165.81;;;6.68;82.23
25610;BME280;13479;49.044;8.716;2023-02-20T04:11:29;100169.47;;;6.65;82.20
25610;BME280;13479;49.044;8.716;2023-02-20T04:13:56;100164.19;;;6.65;82.14
25610;BME280;13479;49.044;8.716;2023-02-20T04:16:23;100176.75;;;6.60;82.28
25610;BME280;13479;49.044;8.716;2023-02-20T04:18:48;100176.75;;;6.60;81.71
25610;BME280;13479;49.044;8.716;2023-02-20T04:21:33;100185.16;;;6.68;81.57
25610;BME280;13479;49.044;8.716;2023-02-20T04:24:20;100178.19;;;6.67;81.64
25610;BME280;13479;49.044;8.716;2023-02-20T04:26:47;100168.25;;;6.55;81.85
25610;BME280;13479;49.044;8.716;2023-02-20T04:29:12;100171.81;;;6.54;81.65
25610;BME280;13479;49.044;8.716;2023-02-20T04:31:38;100158.78;;;6.51;82.01
25610;BME280;13479;49.044;8.716;2023-02-20T04:34:03;100147.69;;;6.44;82.59
25610;BME280;13479;49.044;8.716;2023-02-20T04:36:28;100145.13;;;6.42;82.51
25610;BME280;13479;49.044;8.716;2023-02-20T04:38:53;100152.13;;;6.43;81.81
25610;BME280;13479;49.044;8.716;2023-02-20T04:41:19;100161.88;;;6.41;81.80
25610;BME280;13479;49.044;8.716;2023-02-20T04:43:44;100175.63;;;6.48;81.74
25610;BME280;13479;49.044;8.716;2023-02-20T04:46:09;100185.63;;;6.41;81.52
25610;BME280;13479;49.044;8.716;2023-02-20T04:48:35;100186.69;;;6.37;81.31
25610;BME280;13479;49.044;8.716;2023-02-20T04:51:00;100192.69;;;6.41;81.64
25610;BME280;13479;49.044;8.716;2023-02-20T04:53:26;100194.28;;;6.26;81.01
25610;BME280;13479;49.044;8.716;2023-02-20T04:55:51;100185.31;;;6.30;81.39
25610;BME280;13479;49.044;8.716;2023-02-20T04:58:16;100170.34;;;6.30;81.67
25610;BME280;13479;49.044;8.716;2023-02-20T05:00:42;100154.53;;;6.30;81.45
25610;BME280;13479;49.044;8.716;2023-02-20T05:03:07;100141.25;;;6.32;81.84
25610;BME280;13479;49.044;8.716;2023-02-20T05:05:32;100131.94;;;6.42;82.69
25610;BME280;13479;49.044;8.716;2023-02-20T05:08:02;100147.63;;;6.45;82.55
25610;BME280;13479;49.044;8.716;2023-02-20T05:10:30;100128.44;;;6.42;82.50
25610;BME280;13479;49.044;8.716;2023-02-20T05:12:55;100125.50;;;6.48;82.74
25610;BME280;13479;49.044;8.716;2023-02-20T05:15:22;100131.69;;;6.47;82.50
25610;BME280;13479;49.044;8.716;2023-02-20T05:17:47;100138.13;;;6.59;82.49
25610;BME280;13479;49.044;8.716;2023-02-20T05:20:13;100161.47;;;6.67;82.17
25610;BME280;13479;49.044;8.716;2023-02-20T05:22:39;100157.53;;;6.58;82.14
25610;BME280;13479;49.044;8.716;2023-02-20T05:25:05;100157.84;;;6.52;82.40
25610;BME280;13479;49.044;8.716;2023-02-20T05:27:31;100159.56;;;6.53;82.77
25610;BME280;13479;49.044;8.716;2023-02-20T05:29:58;100156.75;;;6.56;82.45
25610;BME280;13479;49.044;8.716;2023-02-20T05:32:26;100159.69;;;6.49;82.44
25610;BME280;13479;49.044;8.716;2023-02-20T05:34:52;100160.47;;;6.52;82.34
25610;BME280;13479;49.044;8.716;2023-02-20T05:37:19;100170.25;;;6.49;81.94
25610;BME280;13479;49.044;8.716;2023-02-20T05:39:45;100165.91;;;6.48;82.09
25610;BME280;13479;49.044;8.716;2023-02-20T05:42:11;100181.69;;;6.50;82.35
25610;BME280;13479;49.044;8.716;2023-02-20T05:44:37;100189.09;;;6.42;81.48
25610;BME280;13479;49.044;8.716;2023-02-20T05:47:03;100184.94;;;6.38;81.88
25610;BME280;13479;49.044;8.716;2023-02-20T05:49:29;100179.88;;;6.33;81.65
25610;BME280;13479;49.044;8.716;2023-02-20T05:51:55;100168.09;;;6.40;82.11
25610;BME280;13479;49.044;8.716;2023-02-20T05:54:21;100181.81;;;6.47;82.00
25610;BME280;13479;49.044;8.716;2023-02-20T05:56:47;100184.84;;;6.39;81.39
25610;BME280;13479;49.044;8.716;2023-02-20T05:59:16;100169.47;;;6.30;82.05
25610;BME280;13479;49.044;8.716;2023-02-20T06:01:42;100154.97;;;6.21;82.43
25610;BME280;13479;49.044;8.716;2023-02-20T06:04:07;100142.19;;;6.13;82.84
25610;BME280;13479;49.044;8.716;2023-02-20T06:06:34;100130.69;;;6.14;82.99
25610;BME280;13479;49.044;8.716;2023-02-20T06:09:00;100129.59;;;6.18;82.49
25610;BME280;13479;49.044;8.716;2023-02-20T06:11:25;100131.78;;;6.10;82.75
25610;BME280;13479;49.044;8.716;2023-02-20T06:13:51;100127.59;;;6.06;82.72
25610;BME280;13479;49.044;8.716;2023-02-20T06:16:23;100124.94;;;6.06;82.85
25610;BME280;13479;49.044;8.716;2023-02-20T06:18:49;100125.97;;;6.03;83.38
25610;BME280;13479;49.044;8.716;2023-02-20T06:21:15;100134.06;;;5.99;82.89
25610;BME280;13479;49.044;8.716;2023-02-20T06:23:43;100133.16;;;6.00;83.37
25610;BME280;13479;49.044;8.716;2023-02-20T06:26:11;100145.34;;;6.02;82.90
25610;BME280;13479;49.044;8.716;2023-02-20T06:28:37;100142.91;;;5.98;83.10
25610;BME280;13479;49.044;8.716;2023-02-20T06:31:04;100151.75;;;5.97;82.96
25610;BME280;13479;49.044;8.716;2023-02-20T06:33:29;100161.84;;;6.06;83.13
25610;BME280;13479;49.044;8.716;2023-02-20T06:35:55;100167.91;;;6.08;82.78
25610;BME280;13479;49.044;8.716;2023-02-20T06:38:20;100174.53;;;6.17;82.07
25610;BME280;13479;49.044;8.716;2023-02-20T06:40:46;100173.03;;;6.11;82.40
25610;BME280;13479;49.044;8.716;2023-02-20T06:43:11;100165.28;;;6.08;82.68
25610;BME280;13479;49.044;8.716;2023-02-20T06:45:37;100146.44;;;6.16;83.10
25610;BME280;13479;49.044;8.716;2023-02-20T06:48:02;100166.53;;;6.18;82.58
25610;BME280;13479;49.044;8.716;2023-02-20T06:50:28;100168.09;;;6.23;82.22
25610;BME280;13479;49.044;8.716;2023-02-20T06:52:53;100177.53;;;6.27;82.34
25610;BME280;13479;49.044;8.716;2023-02-20T06:55:18;100185.16;;;6.33;81.89
25610;BME280;13479;49.044;8.716;2023-02-20T06:57:44;100188.97;;;6.45;82.19
25610;BME280;13479;49.044;8.716;2023-02-20T07:00:09;100193.75;;;6.54;82.24
25610;BME280;13479;49.044;8.716;2023-02-20T07:02:35;100207.81;;;6.72;80.94
25610;BME280;13479;49.044;8.716;2023-02-20T07:05:01;100217.88;;;6.82;81.21
25610;BME280;13479;49.044;8.716;2023-02-20T07:07:27;100213.09;;;6.90;80.62
25610;BME280;13479;49.044;8.716;2023-02-20T07:09:52;100202.63;;;7.04;80.13
25610;BME280;13479;49.044;8.716;2023-02-20T07:12:17;100209.00;;;7.18;79.81
25610;BME280;13479;49.044;8.716;2023-02-20T07:14:43;100202.47;;;7.25;79.53
25610;BME280;13479;49.044;8.716;2023-02-20T07:17:08;100193.88;;;7.37;78.88
25610;BME280;13479;49.044;8.716;2023-02-20T07:19:33;100177.16;;;7.53;78.66
25610;BME280;13479;49.044;8.716;2023-02-20T07:21:58;100181.44;;;7.71;78.22
25610;BME280;13479;49.044;8.716;2023-02-20T07:24:24;100171.88;;;7.85;77.65
25610;BME280;13479;49.044;8.716;2023-02-20T07:26:49;100167.28;;;8.04;76.99
25610;BME280;13479;49.044;8.716;2023-02-20T07:29:14;100184.63;;;8.25;75.66
25610;BME280;13479;49.044;8.716;2023-02-20T07:31:39;100181.25;;;8.37;75.18
25610;BME280;13479;49.044;8.716;2023-02-20T07:34:05;100173.97;;;8.57;74.39
25610;BME280;13479;49.044;8.716;2023-02-20T07:36:30;100159.06;;;8.70;74.18
25610;BME280;13479;49.044;8.716;2023-02-20T07:38:58;100148.38;;;8.86;73.93
25610;BME280;13479;49.044;8.716;2023-02-20T07:41:24;100153.41;;;9.05;72.97
25610;BME280;13479;49.044;8.716;2023-02-20T07:43:50;100168.63;;;9.31;71.74
25610;BME280;13479;49.044;8.716;2023-02-20T07:46:16;100169.72;;;9.70;70.98
25610;BME280;13479;49.044;8.716;2023-02-20T07:48:41;100207.97;;;11.27;67.47
25610;BME280;13479;49.044;8.716;2023-02-20T07:51:07;100175.19;;;13.19;64.23
25610;BME280;13479;49.044;8.716;2023-02-20T07:53:32;100143.94;;;15.05;57.18
25610;BME280;13479;49.044;8.716;2023-02-20T07:55:57;100107.22;;;16.66;53.06
25610;BME280;13479;49.044;8.716;2023-02-20T07:58:23;100101.41;;;18.18;48.31
25610;BME280;13479;49.044;8.716;2023-02-20T08:00:49;100116.66;;;19.50;44.41
25610;BME280;13479;49.044;8.716;2023-02-20T08:03:18;100136.66;;;20.64;41.13
25610;BME280;13479;49.044;8.716;2023-02-20T08:05:44;100152.19;;;21.75;39.08
25610;BME280;13479;49.044;8.716;2023-02-20T08:08:10;100177.28;;;22.77;35.71
25610;BME280;13479;49.044;8.716;2023-02-20T08:10:35;100185.44;;;23.52;33.79
25610;BME280;13479;49.044;8.716;2023-02-20T08:13:00;100187.53;;;24.23;32.81
25610;BME280;13479;49.044;8.716;2023-02-20T08:15:26;100183.56;;;24.97;31.55
25610;BME280;13479;49.044;8.716;2023-02-20T08:17:52;100187.06;;;25.62;30.00
25610;BME280;13479;49.044;8.716;2023-02-20T08:20:19;100178.22;;;26.08;28.35
25610;BME280;13479;49.044;8.716;2023-02-20T08:22:46;100183.94;;;26.27;27.92
25610;BME280;13479;49.044;8.716;2023-02-20T08:25:12;100177.03;;;26.31;27.98
25610;BME280;13479;49.044;8.716;2023-02-20T08:27:41;100170.97;;;26.76;27.05
25610;BME280;13479;49.044;8.716;2023-02-20T08:30:10;100167.00;;;26.78;26.68
25610;BME280;13479;49.044;8.716;2023-02-20T08:32:36;100169.06;;;26.63;26.19
25610;BME280;13479;49.044;8.716;2023-02-20T08:35:01;100165.31;;;26.57;26.36
25610;BME280;13479;49.044;8.716;2023-02-20T08:37:28;100163.41;;;26.31;26.60
25610;BME280;13479;49.044;8.716;2023-02-20T08:39:53;100154.00;;;25.58;27.21
25610;BME280;13479;49.044;8.716;2023-02-20T08:42:18;100158.53;;;25.93;27.19
25610;BME280;13479;49.044;8.716;2023-02-20T08:44:43;100155.19;;;26.04;26.81
25610;BME280;13479;49.044;8.716;2023-02-20T08:47:09;100164.88;;;26.13;26.40
25610;BME280;13479;49.044;8.716;2023-02-20T08:49:34;100157.97;;;26.38;26.36
25610;BME280;13479;49.044;8.716;2023-02-20T08:51:59;100156.72;;;26.67;25.75
25610;BME280;13479;49.044;8.716;2023-02-20T08:54:25;100155.03;;;27.00;25.62
25610;BME280;13479;49.044;8.716;2023-02-20T08:56:50;100159.16;;;27.22;25.01
25610;BME280;13479;49.044;8.716;2023-02-20T08:59:15;100148.41;;;27.34;25.11
25610;BME280;13479;49.044;8.716;2023-02-20T09:01:41;100146.63;;;27.67;24.76
25610;BME280;13479;49.044;8.716;2023-02-20T09:04:07;100157.13;;;28.02;23.86
25610;BME280;13479;49.044;8.716;2023-02-20T09:06:33;100146.78;;;28.43;23.71
25610;BME280;13479;49.044;8.716;2023-02-20T09:08:58;100143.78;;;28.70;23.30
25610;BME280;13479;49.044;8.716;2023-02-20T09:11:24;100149.94;;;28.14;23.54
25610;BME280;13479;49.044;8.716;2023-02-20T09:13:49;100147.69;;;26.87;24.63
25610;BME280;13479;49.044;8.716;2023-02-20T09:16:18;100136.41;;;26.36;25.20
25610;BME280;13479;49.044;8.716;2023-02-20T09:18:44;100128.59;;;25.93;25.49
25610;BME280;13479;49.044;8.716;2023-02-20T09:21:11;100127.81;;;25.02;26.81
25610;BME280;13479;49.044;8.716;2023-02-20T09:23:37;100102.91;;;24.34;27.90
25610;BME280;13479;49.044;8.716;2023-02-20T09:26:04;100091.41;;;23.67;28.38
25610;BME280;13479;49.044;8.716;2023-02-20T09:28:29;100084.97;;;22.57;29.77
25610;BME280;13479;49.044;8.716;2023-02-20T09:30:54;100075.22;;;21.63;30.99
25610;BME280;13479;49.044;8.716;2023-02-20T09:33:22;100068.84;;;20.84;32.15
25610;BME280;13479;49.044;8.716;2023-02-20T09:35:48;100066.19;;;19.76;33.22
25610;BME280;13479;49.044;8.716;2023-02-20T09:38:14;100059.19;;;18.90;34.97
25610;BME280;13479;49.044;8.716;2023-02-20T09:40:39;100059.84;;;18.31;35.75
25610;BME280;13479;49.044;8.716;2023-02-20T09:43:12;100056.44;;;18.02;36.65
25610;BME280;13479;49.044;8.716;2023-02-20T09:45:56;100046.78;;;18.62;35.80
25610;BME280;13479;49.044;8.716;2023-02-20T09:48:42;100015.84;;;19.85;34.50
25610;BME280;13479;49.044;8.716;2023-02-20T09:51:16;100014.84;;;21.47;32.13
25610;BME280;13479;49.044;8.716;2023-02-20T09:54:02;100043.72;;;23.36;29.09
25610;BME280;13479;49.044;8.716;2023-02-20T09:56:32;100059.38;;;24.78;27.67
25610;BME280;13479;49.044;8.716;2023-02-20T09:59:16;100072.13;;;25.95;25.98
25610;BME280;13479;49.044;8.716;2023-02-20T10:01:52;100085.25;;;26.85;24.52
25610;BME280;13479;49.044;8.716;2023-02-20T10:04:22;100099.31;;;27.48;23.78
25610;BME280;13479;49.044;8.716;2023-02-20T10:06:52;100099.69;;;27.90;22.95
25610;BME280;13479;49.044;8.716;2023-02-20T10:09:18;100102.09;;;28.37;22.63
25610;BME280;13479;49.044;8.716;2023-02-20T10:19:40;100086.38;;;28.76;22.44
25610;BME280;13479;49.044;8.716;2023-02-20T10:22:17;100085.38;;;28.89;22.21
25610;BME280;13479;49.044;8.716;2023-02-20T10:24:55;100085.78;;;28.74;22.07
25610;BME280;13479;49.044;8.716;2023-02-20T10:27:33;100094.16;;;28.54;21.71
25610;BME280;13479;49.044;8.716;2023-02-20T10:30:03;100089.00;;;28.64;22.44
25610;BME280;13479;49.044;8.716;2023-02-20T10:32:45;100084.47;;;28.77;22.43
25610;BME280;13479;49.044;8.716;2023-02-20T10:35:23;100076.50;;;28.75;22.40
25610;BME280;13479;49.044;8.716;2023-02-20T10:37:53;100085.25;;;28.84;22.00
25610;BME280;13479;49.044;8.716;2023-02-20T10:43:43;100076.06;;;28.78;22.25
25610;BME280;13479;49.044;8.716;2023-02-20T10:46:16;100081.34;;;28.29;22.36
25610;BME280;13479;49.044;8.716;2023-02-20T10:48:44;100073.53;;;27.75;23.02
25610;BME280;13479;49.044;8.716;2023-02-20T10:51:32;100069.50;;;27.01;23.46
25610;BME280;13479;49.044;8.716;2023-02-20T10:54:13;100058.28;;;26.57;24.44
25610;BME280;13479;49.044;8.716;2023-02-20T10:59:18;100043.66;;;26.04;24.85
25610;BME280;13479;49.044;8.716;2023-02-20T11:01:48;100027.53;;;26.23;25.02
25610;BME280;13479;49.044;8.716;2023-02-20T11:04:21;100025.47;;;26.11;25.03
25610;BME280;13479;49.044;8.716;2023-02-20T11:07:07;100023.34;;;25.86;24.88
25610;BME280;13479;49.044;8.716;2023-02-20T11:09:34;100021.66;;;25.58;25.43
25610;BME280;13479;49.044;8.716;2023-02-20T11:12:00;100007.63;;;25.55;26.10
25610;BME280;13479;49.044;8.716;2023-02-20T11:14:33;100004.47;;;25.58;25.46
25610;BME280;13479;49.044;8.716;2023-02-20T11:17:08;99996.13;;;25.53;25.65
25610;BME280;13479;49.044;8.716;2023-02-20T11:19:43;100006.25;;;25.10;25.80
25610;BME280;13479;49.044;8.716;2023-02-20T11:22:10;99998.13;;;24.69;26.30
25610;BME280;13479;49.044;8.716;2023-02-20T11:24:37;99984.16;;;24.08;27.02
25610;BME280;13479;49.044;8.716;2023-02-20T11:27:18;99979.28;;;23.32;28.07
25610;BME280;13479;49.044;8.716;2023-02-20T11:29:50;99976.41;;;22.81;28.88
25610;BME280;13479;49.044;8.716;2023-02-20T11:32:26;99958.97;;;22.39;29.33
25610;BME280;13479;49.044;8.716;2023-02-20T11:37:45;99942.06;;;20.59;31.93
25610;BME280;13479;49.044;8.716;2023-02-20T11:40:24;99940.91;;;19.56;33.75
25610;BME280;13479;49.044;8.716;2023-02-20T11:42:51;99940.41;;;18.68;35.37
25610;BME280;13479;49.044;8.716;2023-02-20T11:45:23;99937.91;;;18.05;36.36
25610;BME280;13479;49.044;8.716;2023-02-20T11:50:43;99922.03;;;16.95;38.55
25610;BME280;13479;49.044;8.716;2023-02-20T11:53:21;99921.38;;;16.38;39.70
25610;BME280;13479;49.044;8.716;2023-02-20T11:55:47;99918.38;;;16.13;40.43
25610;BME280;13479;49.044;8.716;2023-02-20T11:58:21;99905.00;;;15.93;40.68
25610;BME280;13479;49.044;8.716;2023-02-20T12:00:50;99900.97;;;15.69;41.83
25610;BME280;13479;49.044;8.716;2023-02-20T12:03:27;99891.00;;;15.52;42.11
25610;BME280;13479;49.044;8.716;2023-02-20T12:05:53;99879.06;;;15.36;42.84
25610;BME280;13479;49.044;8.716;2023-02-20T12:10:53;99859.19;;;15.29;42.66
25610;BME280;13479;49.044;8.716;2023-02-20T12:13:21;99854.00;;;15.18;42.84
25610;BME280;13479;49.044;8.716;2023-02-20T12:15:56;99844.44;;;15.15;43.15
25610;BME280;13479;49.044;8.716;2023-02-20T12:24:39;99831.75;;;15.07;43.43
25610;BME280;13479;49.044;8.716;2023-02-20T12:30:26;99809.66;;;15.05;43.39
25610;BME280;13479;49.044;8.716;2023-02-20T12:35:34;99799.13;;;15.13;43.36
25610;BME280;13479;49.044;8.716;2023-02-20T12:38:30;99797.44;;;15.12;43.65
25610;BME280;13479;49.044;8.716;2023-02-20T12:47:03;99790.38;;;14.92;43.04
25610;BME280;13479;49.044;8.716;2023-02-20T12:53:00;99777.16;;;14.90;43.89
25610;BME280;13479;49.044;8.716;2023-02-20T12:55:39;99775.75;;;14.96;43.36
25610;BME280;13479;49.044;8.716;2023-02-20T13:00:43;99762.97;;;14.90;43.96
25610;BME280;13479;49.044;8.716;2023-02-20T13:03:15;99753.09;;;14.90;44.31
25610;BME280;13479;49.044;8.716;2023-02-20T13:05:45;99757.03;;;14.96;43.58
25610;BME280;13479;49.044;8.716;2023-02-20T13:08:21;99746.34;;;14.96;43.32
25610;BME280;13479;49.044;8.716;2023-02-20T13:10:55;99736.78;;;14.93;43.53
25610;BME280;13479;49.044;8.716;2023-02-20T13:13:21;99733.25;;;14.93;43.62
25610;BME280;13479;49.044;8.716;2023-02-20T13:15:57;99731.72;;;14.90;43.92
25610;BME280;13479;49.044;8.716;2023-02-20T13:18:32;99731.00;;;14.98;43.97
25610;BME280;13479;49.044;8.716;2023-02-20T13:21:04;99739.44;;;15.03;43.24
25610;BME280;13479;49.044;8.716;2023-02-20T13:23:33;99734.09;;;15.03;43.67
25610;BME280;13479;49.044;8.716;2023-02-20T13:25:59;99729.59;;;15.04;43.92
25610;BME280;13479;49.044;8.716;2023-02-20T13:28:32;99728.44;;;15.06;43.88
25610;BME280;13479;49.044;8.716;2023-02-20T13:31:11;99724.41;;;15.02;43.62
25610;BME280;13479;49.044;8.716;2023-02-20T13:33:39;99725.66;;;15.08;43.96
25610;BME280;13479;49.044;8.716;2023-02-20T13:36:13;99718.47;;;15.08;43.73
25610;BME280;13479;49.044;8.716;2023-02-20T13:38:39;99720.00;;;15.11;43.72
25610;BME280;13479;49.044;8.716;2023-02-20T13:41:07;99717.31;;;15.11;43.68
25610;BME280;13479;49.044;8.716;2023-02-20T13:43:35;99711.84;;;15.12;43.96
25610;BME280;13479;49.044;8.716;2023-02-20T13:56:19;99697.78;;;15.01;43.36
25610;BME280;13479;49.044;8.716;2023-02-20T13:58:45;99689.50;;;14.94;43.53
25610;BME280;13479;49.044;8.716;2023-02-20T14:01:11;99694.56;;;14.97;43.92
25610;BME280;13479;49.044;8.716;2023-02-20T14:03:36;99689.19;;;15.07;43.52
25610;BME280;13479;49.044;8.716;2023-02-20T14:08:28;99665.69;;;15.01;44.54
25610;BME280;13479;49.044;8.716;2023-02-20T14:10:54;99667.13;;;14.95;44.58
25610;BME280;13479;49.044;8.716;2023-02-20T14:13:21;99668.25;;;14.92;45.04
25610;BME280;13479;49.044;8.716;2023-02-20T14:15:53;99659.22;;;15.03;44.94
25610;BME280;13479;49.044;8.716;2023-02-20T14:18:23;99666.41;;;15.03;44.92
25610;BME280;13479;49.044;8.716;2023-02-20T14:20:54;99658.41;;;14.93;44.85